Terminal Aerodrome Forecast
Issued by NWS

Current Version | Previous Version | Text Only | Print | Product List | Glossary On
Versions: 1 2 3 4 5 6 7 8 9 10 11 12
000
FTUS46 KPDT 271100
TAFRDM
TAF
KRDM 271138Z 2712/2812 14003KT P6SM BKN150
     FM272100 31007KT P6SM SCT080 BKN150
     FM280200 33004KT P6SM BKN080 OVC150
     FM280800 16004KT P6SM BKN060 OVC100=

USA.gov is the U.S. government's official web portal to all federal, state and local government web resources and services.